sensor_id;sensor_type;location;lat;lon;timestamp;pressure;altitude;pressure_sealevel;temperature;humidity
28344;BME280;15597;50.914;6.638;2022-12-07T00:00:29;100984.22;;;8.14;62.98
28344;BME280;15597;50.914;6.638;2022-12-07T00:02:54;100979.88;;;8.13;62.62
28344;BME280;15597;50.914;6.638;2022-12-07T00:05:20;100968.56;;;8.17;62.67
28344;BME280;15597;50.914;6.638;2022-12-07T00:07:45;100972.91;;;8.15;63.15
28344;BME280;15597;50.914;6.638;2022-12-07T00:10:11;100972.91;;;8.18;62.84
28344;BME280;15597;50.914;6.638;2022-12-07T00:12:36;100966.84;;;8.16;62.89
28344;BME280;15597;50.914;6.638;2022-12-07T00:15:02;100968.59;;;8.15;62.88
28344;BME280;15597;50.914;6.638;2022-12-07T00:17:28;100962.50;;;8.15;63.01
28344;BME280;15597;50.914;6.638;2022-12-07T00:19:54;100965.97;;;8.14;63.19
28344;BME280;15597;50.914;6.638;2022-12-07T00:22:19;100965.13;;;8.13;62.69
28344;BME280;15597;50.914;6.638;2022-12-07T00:24:45;100966.84;;;8.13;63.01
28344;BME280;15597;50.914;6.638;2022-12-07T00:27:10;100967.72;;;8.12;62.70
28344;BME280;15597;50.914;6.638;2022-12-07T00:29:36;100959.91;;;8.13;63.13
28344;BME280;15597;50.914;6.638;2022-12-07T00:32:03;100952.06;;;8.15;63.29
28344;BME280;15597;50.914;6.638;2022-12-07T00:34:28;100953.81;;;8.16;62.87
28344;BME280;15597;50.914;6.638;2022-12-07T00:36:54;100947.75;;;8.15;63.06
28344;BME280;15597;50.914;6.638;2022-12-07T00:39:19;100953.81;;;8.16;62.89
28344;BME280;15597;50.914;6.638;2022-12-07T00:41:45;100953.81;;;8.16;63.40
28344;BME280;15597;50.914;6.638;2022-12-07T00:44:10;100949.47;;;8.16;63.33
28344;BME280;15597;50.914;6.638;2022-12-07T00:46:36;100949.47;;;8.15;63.37
28344;BME280;15597;50.914;6.638;2022-12-07T00:49:02;100941.66;;;8.12;63.24
28344;BME280;15597;50.914;6.638;2022-12-07T00:51:28;100949.47;;;8.12;62.86
28344;BME280;15597;50.914;6.638;2022-12-07T00:53:53;100946.88;;;8.12;63.15
28344;BME280;15597;50.914;6.638;2022-12-07T00:56:24;100946.88;;;8.12;63.50
28344;BME280;15597;50.914;6.638;2022-12-07T00:58:59;100942.53;;;8.12;62.98
28344;BME280;15597;50.914;6.638;2022-12-07T01:01:27;100946.84;;;8.15;62.94
28344;BME280;15597;50.914;6.638;2022-12-07T01:03:54;100948.59;;;8.16;62.90
28344;BME280;15597;50.914;6.638;2022-12-07T01:06:20;100947.75;;;8.15;63.26
28344;BME280;15597;50.914;6.638;2022-12-07T01:08:46;100951.19;;;8.16;63.45
28344;BME280;15597;50.914;6.638;2022-12-07T01:11:15;100939.06;;;8.13;63.38
28344;BME280;15597;50.914;6.638;2022-12-07T01:13:42;100939.94;;;8.11;63.33
28344;BME280;15597;50.914;6.638;2022-12-07T01:16:11;100953.00;;;8.09;63.54
28344;BME280;15597;50.914;6.638;2022-12-07T01:18:37;100957.31;;;8.09;63.41
28344;BME280;15597;50.914;6.638;2022-12-07T01:21:08;100957.31;;;8.09;63.23
28344;BME280;15597;50.914;6.638;2022-12-07T01:23:34;100957.31;;;8.12;63.57
28344;BME280;15597;50.914;6.638;2022-12-07T01:26:04;100956.41;;;8.16;63.50
28344;BME280;15597;50.914;6.638;2022-12-07T01:28:30;100955.53;;;8.17;63.61
28344;BME280;15597;50.914;6.638;2022-12-07T01:31:03;100952.06;;;8.18;63.07
28344;BME280;15597;50.914;6.638;2022-12-07T01:33:32;100952.91;;;8.22;63.18
28344;BME280;15597;50.914;6.638;2022-12-07T01:36:04;100952.94;;;8.15;63.53
28344;BME280;15597;50.914;6.638;2022-12-07T01:38:30;100954.66;;;8.18;63.22
28344;BME280;15597;50.914;6.638;2022-12-07T01:40:57;100947.69;;;8.20;63.44
28344;BME280;15597;50.914;6.638;2022-12-07T01:43:24;100948.56;;;8.22;63.37
28344;BME280;15597;50.914;6.638;2022-12-07T01:45:51;100957.22;;;8.27;63.39
28344;BME280;15597;50.914;6.638;2022-12-07T01:48:19;100940.69;;;8.28;63.18
28344;BME280;15597;50.914;6.638;2022-12-07T01:50:48;100948.50;;;8.28;63.06
28344;BME280;15597;50.914;6.638;2022-12-07T01:53:16;100953.72;;;8.28;63.22
28344;BME280;15597;50.914;6.638;2022-12-07T01:55:46;100954.59;;;8.30;63.32
28344;BME280;15597;50.914;6.638;2022-12-07T01:58:13;100949.38;;;8.32;63.13
28344;BME280;15597;50.914;6.638;2022-12-07T02:00:40;100950.22;;;8.34;63.30
28344;BME280;15597;50.914;6.638;2022-12-07T02:05:37;100945.00;;;8.36;63.07
28344;BME280;15597;50.914;6.638;2022-12-07T02:08:03;100941.50;;;8.37;63.04
28344;BME280;15597;50.914;6.638;2022-12-07T02:10:31;100940.66;;;8.34;63.07
28344;BME280;15597;50.914;6.638;2022-12-07T02:13:13;100938.06;;;8.31;63.14
28344;BME280;15597;50.914;6.638;2022-12-07T02:23:41;100925.09;;;8.24;63.46
28344;BME280;15597;50.914;6.638;2022-12-07T02:29:10;100929.44;;;8.23;63.28
28344;BME280;15597;50.914;6.638;2022-12-07T02:32:04;100928.56;;;8.26;63.25
28344;BME280;15597;50.914;6.638;2022-12-07T02:34:37;100939.84;;;8.26;63.40
28344;BME280;15597;50.914;6.638;2022-12-07T02:37:12;100924.19;;;8.26;63.28
28344;BME280;15597;50.914;6.638;2022-12-07T02:39:48;100929.38;;;8.29;63.38
28344;BME280;15597;50.914;6.638;2022-12-07T02:42:20;100926.78;;;8.31;63.28
28344;BME280;15597;50.914;6.638;2022-12-07T02:44:49;100924.16;;;8.32;63.29
28344;BME280;15597;50.914;6.638;2022-12-07T02:47:17;100926.75;;;8.32;63.02
28344;BME280;15597;50.914;6.638;2022-12-07T02:49:45;100922.41;;;8.34;63.05
28344;BME280;15597;50.914;6.638;2022-12-07T02:52:11;100915.44;;;8.37;63.15
28344;BME280;15597;50.914;6.638;2022-12-07T02:54:37;100918.88;;;8.39;63.14
28344;BME280;15597;50.914;6.638;2022-12-07T02:57:15;100922.38;;;8.38;62.99
28344;BME280;15597;50.914;6.638;2022-12-07T03:02:40;100920.66;;;8.38;63.19
28344;BME280;15597;50.914;6.638;2022-12-07T03:05:25;100927.59;;;8.38;62.79
28344;BME280;15597;50.914;6.638;2022-12-07T03:10:42;100931.97;;;8.37;63.21
28344;BME280;15597;50.914;6.638;2022-12-07T03:18:31;100935.44;;;8.31;63.44
28344;BME280;15597;50.914;6.638;2022-12-07T03:21:01;100939.81;;;8.29;63.29
28344;BME280;15597;50.914;6.638;2022-12-07T03:23:29;100939.78;;;8.32;63.33
28344;BME280;15597;50.914;6.638;2022-12-07T03:26:00;100929.38;;;8.32;63.63
28344;BME280;15597;50.914;6.638;2022-12-07T03:28:31;100931.09;;;8.33;63.15
28344;BME280;15597;50.914;6.638;2022-12-07T03:31:07;100937.19;;;8.32;63.26
28344;BME280;15597;50.914;6.638;2022-12-07T03:33:44;100931.09;;;8.33;63.27
28344;BME280;15597;50.914;6.638;2022-12-07T03:36:19;100932.81;;;8.34;63.46
28344;BME280;15597;50.914;6.638;2022-12-07T03:39:16;100932.88;;;8.28;63.05
28344;BME280;15597;50.914;6.638;2022-12-07T03:41:44;100932.88;;;8.28;63.49
28344;BME280;15597;50.914;6.638;2022-12-07T03:44:10;100925.91;;;8.27;63.59
28344;BME280;15597;50.914;6.638;2022-12-07T03:47:03;100919.88;;;8.22;63.43
28344;BME280;15597;50.914;6.638;2022-12-07T03:49:43;100924.22;;;8.20;63.53
28344;BME280;15597;50.914;6.638;2022-12-07T03:54:52;100922.47;;;8.22;63.42
28344;BME280;15597;50.914;6.638;2022-12-07T03:57:22;100932.88;;;8.25;63.59
28344;BME280;15597;50.914;6.638;2022-12-07T03:59:50;100924.19;;;8.28;63.27
28344;BME280;15597;50.914;6.638;2022-12-07T04:02:16;100926.75;;;8.32;62.88
28344;BME280;15597;50.914;6.638;2022-12-07T04:04:43;100920.66;;;8.37;63.21
28344;BME280;15597;50.914;6.638;2022-12-07T04:07:08;100925.84;;;8.40;63.18
28344;BME280;15597;50.914;6.638;2022-12-07T04:09:34;100926.69;;;8.42;63.23
28344;BME280;15597;50.914;6.638;2022-12-07T04:12:00;100926.66;;;8.46;63.04
28344;BME280;15597;50.914;6.638;2022-12-07T04:14:25;100924.03;;;8.48;62.97
28344;BME280;15597;50.914;6.638;2022-12-07T04:16:57;100929.25;;;8.48;62.97
28344;BME280;15597;50.914;6.638;2022-12-07T04:19:28;100922.31;;;8.52;63.09
28344;BME280;15597;50.914;6.638;2022-12-07T04:21:55;100920.59;;;8.52;63.07
28344;BME280;15597;50.914;6.638;2022-12-07T04:24:21;100924.06;;;8.54;62.49
28344;BME280;15597;50.914;6.638;2022-12-07T04:26:47;100920.53;;;8.58;62.92
28344;BME280;15597;50.914;6.638;2022-12-07T04:29:14;100921.41;;;8.60;62.79
28344;BME280;15597;50.914;6.638;2022-12-07T04:31:40;100919.66;;;8.59;62.92
28344;BME280;15597;50.914;6.638;2022-12-07T04:34:07;100918.78;;;8.60;62.94
28344;BME280;15597;50.914;6.638;2022-12-07T04:36:33;100920.50;;;8.60;62.98
28344;BME280;15597;50.914;6.638;2022-12-07T04:38:59;100919.63;;;8.61;62.64
28344;BME280;15597;50.914;6.638;2022-12-07T04:41:25;100918.78;;;8.60;62.53
28344;BME280;15597;50.914;6.638;2022-12-07T04:43:59;100913.56;;;8.60;62.72
28344;BME280;15597;50.914;6.638;2022-12-07T04:46:44;100912.69;;;8.60;62.34
28344;BME280;15597;50.914;6.638;2022-12-07T04:49:29;100911.84;;;8.59;62.93
28344;BME280;15597;50.914;6.638;2022-12-07T04:51:54;100913.56;;;8.60;62.43
28344;BME280;15597;50.914;6.638;2022-12-07T04:54:20;100921.38;;;8.62;62.30
28344;BME280;15597;50.914;6.638;2022-12-07T04:56:46;100923.09;;;8.65;62.39
28344;BME280;15597;50.914;6.638;2022-12-07T04:59:13;100920.50;;;8.65;62.51
28344;BME280;15597;50.914;6.638;2022-12-07T05:01:39;100914.41;;;8.66;62.58
28344;BME280;15597;50.914;6.638;2022-12-07T05:04:05;100915.28;;;8.65;62.33
28344;BME280;15597;50.914;6.638;2022-12-07T05:06:31;100918.75;;;8.64;62.28
28344;BME280;15597;50.914;6.638;2022-12-07T05:08:56;100914.41;;;8.61;62.35
28344;BME280;15597;50.914;6.638;2022-12-07T05:11:22;100917.06;;;8.59;62.49
28344;BME280;15597;50.914;6.638;2022-12-07T05:14:09;100908.38;;;8.57;62.42
28344;BME280;15597;50.914;6.638;2022-12-07T05:16:35;100915.31;;;8.58;62.48
28344;BME280;15597;50.914;6.638;2022-12-07T05:19:01;100917.91;;;8.60;62.46
28344;BME280;15597;50.914;6.638;2022-12-07T05:21:26;100922.28;;;8.59;62.25
28344;BME280;15597;50.914;6.638;2022-12-07T05:23:51;100915.31;;;8.58;62.29
28344;BME280;15597;50.914;6.638;2022-12-07T05:26:17;100917.94;;;8.57;62.34
28344;BME280;15597;50.914;6.638;2022-12-07T05:28:43;100925.78;;;8.55;62.68
28344;BME280;15597;50.914;6.638;2022-12-07T05:31:08;100929.25;;;8.57;62.48
28344;BME280;15597;50.914;6.638;2022-12-07T05:33:34;100923.19;;;8.55;62.73
28344;BME280;15597;50.914;6.638;2022-12-07T05:35:59;100917.09;;;8.56;62.65
28344;BME280;15597;50.914;6.638;2022-12-07T05:38:31;100927.50;;;8.56;62.38
28344;BME280;15597;50.914;6.638;2022-12-07T05:41:05;100927.50;;;8.55;62.14
28344;BME280;15597;50.914;6.638;2022-12-07T05:43:32;100927.50;;;8.55;62.31
28344;BME280;15597;50.914;6.638;2022-12-07T05:45:57;100919.69;;;8.56;62.12
28344;BME280;15597;50.914;6.638;2022-12-07T05:48:24;100925.78;;;8.55;62.42
28344;BME280;15597;50.914;6.638;2022-12-07T05:50:50;100925.78;;;8.55;62.18
28344;BME280;15597;50.914;6.638;2022-12-07T05:53:16;100929.28;;;8.54;62.39
28344;BME280;15597;50.914;6.638;2022-12-07T05:55:43;100918.88;;;8.51;62.12
28344;BME280;15597;50.914;6.638;2022-12-07T05:58:09;100919.69;;;8.47;62.47
28344;BME280;15597;50.914;6.638;2022-12-07T06:00:55;100923.19;;;8.46;62.74
28344;BME280;15597;50.914;6.638;2022-12-07T06:03:20;100915.38;;;8.43;62.46
28344;BME280;15597;50.914;6.638;2022-12-07T06:05:46;100921.50;;;8.40;62.65
28344;BME280;15597;50.914;6.638;2022-12-07T06:08:12;100911.94;;;8.39;62.31
28344;BME280;15597;50.914;6.638;2022-12-07T06:10:40;100911.06;;;8.39;62.68
28344;BME280;15597;50.914;6.638;2022-12-07T06:13:10;100913.69;;;8.37;62.59
28344;BME280;15597;50.914;6.638;2022-12-07T06:15:36;100915.44;;;8.37;62.89
28344;BME280;15597;50.914;6.638;2022-12-07T06:18:02;100905.03;;;8.33;62.95
28344;BME280;15597;50.914;6.638;2022-12-07T06:20:27;100910.25;;;8.35;62.33
28344;BME280;15597;50.914;6.638;2022-12-07T06:22:53;100911.09;;;8.37;62.25
28344;BME280;15597;50.914;6.638;2022-12-07T06:25:19;100911.09;;;8.37;62.62
28344;BME280;15597;50.914;6.638;2022-12-07T06:27:44;100914.56;;;8.38;62.63
28344;BME280;15597;50.914;6.638;2022-12-07T06:30:10;100914.56;;;8.38;62.55
28344;BME280;15597;50.914;6.638;2022-12-07T06:32:36;100911.06;;;8.39;62.47
28344;BME280;15597;50.914;6.638;2022-12-07T06:35:03;100909.31;;;8.41;62.37
28344;BME280;15597;50.914;6.638;2022-12-07T06:37:29;100913.66;;;8.42;62.31
28344;BME280;15597;50.914;6.638;2022-12-07T06:39:54;100908.44;;;8.42;62.41
28344;BME280;15597;50.914;6.638;2022-12-07T06:42:20;100909.31;;;8.42;62.62
28344;BME280;15597;50.914;6.638;2022-12-07T06:44:45;100912.78;;;8.43;62.39
28344;BME280;15597;50.914;6.638;2022-12-07T06:47:11;100918.88;;;8.42;62.26
28344;BME280;15597;50.914;6.638;2022-12-07T06:49:36;100920.63;;;8.40;62.06
28344;BME280;15597;50.914;6.638;2022-12-07T06:52:02;100918.03;;;8.38;62.26
28344;BME280;15597;50.914;6.638;2022-12-07T06:54:30;100911.94;;;8.38;62.35
28344;BME280;15597;50.914;6.638;2022-12-07T06:56:55;100927.56;;;8.41;62.32
28344;BME280;15597;50.914;6.638;2022-12-07T06:59:21;100922.34;;;8.41;62.32
28344;BME280;15597;50.914;6.638;2022-12-07T07:01:47;100924.09;;;8.42;62.22
28344;BME280;15597;50.914;6.638;2022-12-07T07:04:14;100931.03;;;8.43;62.21
28344;BME280;15597;50.914;6.638;2022-12-07T07:06:39;100931.91;;;8.42;62.13
28344;BME280;15597;50.914;6.638;2022-12-07T07:09:05;100928.44;;;8.41;62.17
28344;BME280;15597;50.914;6.638;2022-12-07T07:11:30;100931.06;;;8.40;62.39
28344;BME280;15597;50.914;6.638;2022-12-07T07:13:56;100934.53;;;8.39;62.32
28344;BME280;15597;50.914;6.638;2022-12-07T07:16:24;100939.75;;;8.39;62.35
28344;BME280;15597;50.914;6.638;2022-12-07T07:18:49;100938.91;;;8.38;62.30
28344;BME280;15597;50.914;6.638;2022-12-07T07:21:15;100936.28;;;8.37;62.28
28344;BME280;15597;50.914;6.638;2022-12-07T07:23:40;100930.22;;;8.36;62.53
28344;BME280;15597;50.914;6.638;2022-12-07T07:26:06;100928.50;;;8.35;62.53
28344;BME280;15597;50.914;6.638;2022-12-07T07:28:31;100925.84;;;8.37;62.64
28344;BME280;15597;50.914;6.638;2022-12-07T07:30:57;100931.06;;;8.37;62.72
28344;BME280;15597;50.914;6.638;2022-12-07T07:33:22;100935.41;;;8.38;62.46
28344;BME280;15597;50.914;6.638;2022-12-07T07:35:48;100935.41;;;8.39;62.23
28344;BME280;15597;50.914;6.638;2022-12-07T07:38:13;100927.56;;;8.41;62.48
28344;BME280;15597;50.914;6.638;2022-12-07T07:40:39;100934.50;;;8.42;62.26
28344;BME280;15597;50.914;6.638;2022-12-07T07:43:05;100927.56;;;8.41;62.32
28344;BME280;15597;50.914;6.638;2022-12-07T07:45:30;100934.50;;;8.42;62.48
28344;BME280;15597;50.914;6.638;2022-12-07T07:47:56;100928.41;;;8.43;62.45
28344;BME280;15597;50.914;6.638;2022-12-07T07:50:21;100936.25;;;8.44;62.23
28344;BME280;15597;50.914;6.638;2022-12-07T07:52:47;100937.97;;;8.44;62.43
28344;BME280;15597;50.914;6.638;2022-12-07T07:55:13;100942.34;;;8.43;62.32
28344;BME280;15597;50.914;6.638;2022-12-07T07:57:39;100941.47;;;8.43;62.42
28344;BME280;15597;50.914;6.638;2022-12-07T08:00:09;100944.97;;;8.40;62.28
28344;BME280;15597;50.914;6.638;2022-12-07T08:02:39;100942.34;;;8.39;62.40
28344;BME280;15597;50.914;6.638;2022-12-07T08:05:04;100941.50;;;8.37;62.38
28344;BME280;15597;50.914;6.638;2022-12-07T08:07:30;100950.19;;;8.36;62.20
28344;BME280;15597;50.914;6.638;2022-12-07T08:09:56;100950.22;;;8.34;62.61
28344;BME280;15597;50.914;6.638;2022-12-07T08:12:21;100943.28;;;8.31;62.41
28344;BME280;15597;50.914;6.638;2022-12-07T08:14:47;100945.06;;;8.28;62.40
28344;BME280;15597;50.914;6.638;2022-12-07T08:17:12;100946.78;;;8.27;62.61
28344;BME280;15597;50.914;6.638;2022-12-07T08:19:38;100947.66;;;8.26;62.89
28344;BME280;15597;50.914;6.638;2022-12-07T08:22:04;100947.66;;;8.26;62.95
28344;BME280;15597;50.914;6.638;2022-12-07T08:24:29;100939.84;;;8.25;62.85
28344;BME280;15597;50.914;6.638;2022-12-07T08:26:55;100938.09;;;8.25;63.02
28344;BME280;15597;50.914;6.638;2022-12-07T08:29:21;100941.59;;;8.24;63.01
28344;BME280;15597;50.914;6.638;2022-12-07T08:31:46;100943.34;;;8.22;62.76
28344;BME280;15597;50.914;6.638;2022-12-07T08:34:12;100952.91;;;8.22;62.85
28344;BME280;15597;50.914;6.638;2022-12-07T08:36:38;100947.69;;;8.20;62.95
28344;BME280;15597;50.914;6.638;2022-12-07T08:39:03;100953.75;;;8.22;63.27
28344;BME280;15597;50.914;6.638;2022-12-07T08:41:29;100949.44;;;8.23;63.22
28344;BME280;15597;50.914;6.638;2022-12-07T08:43:54;100953.75;;;8.25;63.10
28344;BME280;15597;50.914;6.638;2022-12-07T08:49:11;100954.63;;;8.26;63.44
28344;BME280;15597;50.914;6.638;2022-12-07T08:51:39;100948.53;;;8.30;63.39
28344;BME280;15597;50.914;6.638;2022-12-07T08:54:08;100950.22;;;8.32;63.28
28344;BME280;15597;50.914;6.638;2022-12-07T08:56:34;100952.81;;;8.36;63.55
28344;BME280;15597;50.914;6.638;2022-12-07T08:59:00;100951.94;;;8.37;63.47
28344;BME280;15597;50.914;6.638;2022-12-07T09:01:26;100951.03;;;8.41;63.13
28344;BME280;15597;50.914;6.638;2022-12-07T09:03:52;100952.78;;;8.43;63.31
28344;BME280;15597;50.914;6.638;2022-12-07T09:06:18;100955.38;;;8.43;63.47
28344;BME280;15597;50.914;6.638;2022-12-07T09:08:46;100945.81;;;8.44;63.61
28344;BME280;15597;50.914;6.638;2022-12-07T09:11:12;100959.69;;;8.47;63.44
28344;BME280;15597;50.914;6.638;2022-12-07T09:13:38;100953.59;;;8.47;63.09
28344;BME280;15597;50.914;6.638;2022-12-07T09:16:03;100952.75;;;8.50;63.10
28344;BME280;15597;50.914;6.638;2022-12-07T09:18:29;100945.78;;;8.52;63.66
28344;BME280;15597;50.914;6.638;2022-12-07T09:20:56;100951.88;;;8.52;62.68
28344;BME280;15597;50.914;6.638;2022-12-07T09:23:22;100951.00;;;8.52;63.29
28344;BME280;15597;50.914;6.638;2022-12-07T09:25:47;100957.09;;;8.52;63.38
28344;BME280;15597;50.914;6.638;2022-12-07T09:28:13;100959.72;;;8.52;63.15
28344;BME280;15597;50.914;6.638;2022-12-07T09:30:38;100959.72;;;8.51;62.80
28344;BME280;15597;50.914;6.638;2022-12-07T09:33:04;100964.06;;;8.53;62.94
28344;BME280;15597;50.914;6.638;2022-12-07T09:35:29;100960.56;;;8.54;62.97
28344;BME280;15597;50.914;6.638;2022-12-07T09:37:55;100961.41;;;8.55;63.23
28344;BME280;15597;50.914;6.638;2022-12-07T09:40:22;100958.81;;;8.55;62.87
28344;BME280;15597;50.914;6.638;2022-12-07T09:42:51;100959.66;;;8.57;62.85
28344;BME280;15597;50.914;6.638;2022-12-07T09:45:27;100954.44;;;8.57;63.23
28344;BME280;15597;50.914;6.638;2022-12-07T09:47:54;100961.41;;;8.59;63.40
28344;BME280;15597;50.914;6.638;2022-12-07T09:50:26;100956.19;;;8.59;62.91
28344;BME280;15597;50.914;6.638;2022-12-07T09:52:54;100955.31;;;8.60;62.89
28344;BME280;15597;50.914;6.638;2022-12-07T09:55:24;100950.09;;;8.60;63.11
28344;BME280;15597;50.914;6.638;2022-12-07T09:57:52;100949.19;;;8.63;63.28
28344;BME280;15597;50.914;6.638;2022-12-07T10:00:20;100944.84;;;8.64;63.13
28344;BME280;15597;50.914;6.638;2022-12-07T10:02:58;100949.19;;;8.65;63.22
28344;BME280;15597;50.914;6.638;2022-12-07T10:05:31;100947.44;;;8.65;62.91
28344;BME280;15597;50.914;6.638;2022-12-07T10:07:57;100944.81;;;8.67;62.88
28344;BME280;15597;50.914;6.638;2022-12-07T10:10:30;100945.69;;;8.64;63.15
28344;BME280;15597;50.914;6.638;2022-12-07T10:13:02;100943.97;;;8.63;63.39
28344;BME280;15597;50.914;6.638;2022-12-07T10:18:26;100930.94;;;8.65;63.33
28344;BME280;15597;50.914;6.638;2022-12-07T10:21:11;100935.28;;;8.66;63.32
28344;BME280;15597;50.914;6.638;2022-12-07T10:23:39;100942.19;;;8.70;63.10
28344;BME280;15597;50.914;6.638;2022-12-07T10:26:27;100935.25;;;8.67;63.56
28344;BME280;15597;50.914;6.638;2022-12-07T10:28:55;100923.94;;;8.70;63.27
28344;BME280;15597;50.914;6.638;2022-12-07T10:31:22;100930.88;;;8.71;63.06
28344;BME280;15597;50.914;6.638;2022-12-07T10:33:55;100923.94;;;8.70;63.42
28344;BME280;15597;50.914;6.638;2022-12-07T10:39:01;100915.19;;;8.74;63.28
28344;BME280;15597;50.914;6.638;2022-12-07T10:41:28;100907.31;;;8.79;63.22
28344;BME280;15597;50.914;6.638;2022-12-07T10:43:56;100914.25;;;8.81;63.06
28344;BME280;15597;50.914;6.638;2022-12-07T10:46:37;100916.84;;;8.83;63.24
28344;BME280;15597;50.914;6.638;2022-12-07T10:52:01;100909.91;;;8.83;63.01
28344;BME280;15597;50.914;6.638;2022-12-07T11:00:00;100908.09;;;8.88;62.81
28344;BME280;15597;50.914;6.638;2022-12-07T11:10:19;100889.72;;;9.01;63.27
28344;BME280;15597;50.914;6.638;2022-12-07T11:18:24;100878.44;;;8.97;62.69
28344;BME280;15597;50.914;6.638;2022-12-07T11:26:43;100867.94;;;9.00;62.75
28344;BME280;15597;50.914;6.638;2022-12-07T11:32:15;100864.44;;;9.06;63.00
28344;BME280;15597;50.914;6.638;2022-12-07T11:37:34;100854.78;;;9.11;63.05
28344;BME280;15597;50.914;6.638;2022-12-07T11:40:04;100855.66;;;9.13;63.07
28344;BME280;15597;50.914;6.638;2022-12-07T11:42:37;100860.84;;;9.16;62.63
28344;BME280;15597;50.914;6.638;2022-12-07T11:45:20;100852.16;;;9.14;63.14
28344;BME280;15597;50.914;6.638;2022-12-07T11:47:54;100853.00;;;9.18;63.09
28344;BME280;15597;50.914;6.638;2022-12-07T11:53:05;100852.94;;;9.24;62.40
28344;BME280;15597;50.914;6.638;2022-12-07T11:55:53;100846.81;;;9.24;62.33
28344;BME280;15597;50.914;6.638;2022-12-07T12:01:11;100845.91;;;9.28;62.55
28344;BME280;15597;50.914;6.638;2022-12-07T12:03:46;100849.41;;;9.27;62.77
28344;BME280;15597;50.914;6.638;2022-12-07T12:06:13;100846.75;;;9.30;62.33
28344;BME280;15597;50.914;6.638;2022-12-07T12:08:44;100844.97;;;9.32;62.42
28344;BME280;15597;50.914;6.638;2022-12-07T12:14:11;100843.25;;;9.31;62.19
28344;BME280;15597;50.914;6.638;2022-12-07T12:22:14;100830.28;;;9.26;62.15
28344;BME280;15597;50.914;6.638;2022-12-07T12:24:43;100832.81;;;9.31;61.76
28344;BME280;15597;50.914;6.638;2022-12-07T12:27:19;100832.81;;;9.31;62.47
28344;BME280;15597;50.914;6.638;2022-12-07T12:29:54;100828.47;;;9.30;62.50
28344;BME280;15597;50.914;6.638;2022-12-07T12:32:23;100825.84;;;9.30;62.16
28344;BME280;15597;50.914;6.638;2022-12-07T12:35:22;100832.88;;;9.25;62.09
28344;BME280;15597;50.914;6.638;2022-12-07T12:37:53;100829.38;;;9.26;61.98
28344;BME280;15597;50.914;6.638;2022-12-07T12:42:51;100818.91;;;9.29;61.82
28344;BME280;15597;50.914;6.638;2022-12-07T12:45:33;100817.13;;;9.31;62.10
28344;BME280;15597;50.914;6.638;2022-12-07T12:48:03;100809.31;;;9.32;62.06
28344;BME280;15597;50.914;6.638;2022-12-07T12:50:35;100803.19;;;9.33;62.15
28344;BME280;15597;50.914;6.638;2022-12-07T12:53:24;100800.59;;;9.32;62.10
28344;BME280;15597;50.914;6.638;2022-12-07T12:58:29;100799.66;;;9.36;62.12
28344;BME280;15597;50.914;6.638;2022-12-07T13:03:58;100797.09;;;9.33;62.00
28344;BME280;15597;50.914;6.638;2022-12-07T13:08:50;100797.13;;;9.31;61.64
28344;BME280;15597;50.914;6.638;2022-12-07T13:11:35;100796.25;;;9.31;62.05
28344;BME280;15597;50.914;6.638;2022-12-07T13:17:06;100788.41;;;9.31;61.97
28344;BME280;15597;50.914;6.638;2022-12-07T13:25:04;100781.47;;;9.30;62.29
28344;BME280;15597;50.914;6.638;2022-12-07T13:27:33;100772.75;;;9.32;62.02
28344;BME280;15597;50.914;6.638;2022-12-07T13:30:00;100775.31;;;9.34;62.40
28344;BME280;15597;50.914;6.638;2022-12-07T13:32:28;100772.69;;;9.35;61.78
28344;BME280;15597;50.914;6.638;2022-12-07T13:34:55;100770.03;;;9.39;61.91
28344;BME280;15597;50.914;6.638;2022-12-07T13:37:26;100768.28;;;9.39;61.63
28344;BME280;15597;50.914;6.638;2022-12-07T13:39:54;100768.25;;;9.42;62.19
28344;BME280;15597;50.914;6.638;2022-12-07T13:44:55;100757.75;;;9.45;61.72
28344;BME280;15597;50.914;6.638;2022-12-07T13:47:41;100763.00;;;9.42;62.19
28344;BME280;15597;50.914;6.638;2022-12-07T13:50:31;100757.78;;;9.42;62.16
28344;BME280;15597;50.914;6.638;2022-12-07T13:52:58;100762.97;;;9.47;62.37
28344;BME280;15597;50.914;6.638;2022-12-07T13:55:25;100750.75;;;9.49;62.56
28344;BME280;15597;50.914;6.638;2022-12-07T13:57:52;100748.06;;;9.54;61.76
28344;BME280;15597;50.914;6.638;2022-12-07T14:00:24;100748.94;;;9.54;61.81
28344;BME280;15597;50.914;6.638;2022-12-07T14:05:41;100750.66;;;9.57;61.74
28344;BME280;15597;50.914;6.638;2022-12-07T14:13:21;100740.16;;;9.60;62.03
28344;BME280;15597;50.914;6.638;2022-12-07T14:15:51;100743.63;;;9.60;61.93
28344;BME280;15597;50.914;6.638;2022-12-07T14:18:35;100738.44;;;9.59;61.60
28344;BME280;15597;50.914;6.638;2022-12-07T14:23:37;100736.66;;;9.61;61.59
28344;BME280;15597;50.914;6.638;2022-12-07T14:26:18;100729.72;;;9.60;61.67
28344;BME280;15597;50.914;6.638;2022-12-07T14:28:45;100731.44;;;9.61;62.15
28344;BME280;15597;50.914;6.638;2022-12-07T14:31:16;100729.75;;;9.57;61.88
28344;BME280;15597;50.914;6.638;2022-12-07T14:33:43;100720.16;;;9.57;61.28
28344;BME280;15597;50.914;6.638;2022-12-07T14:36:09;100720.16;;;9.57;61.49
28344;BME280;15597;50.914;6.638;2022-12-07T14:38:34;100716.69;;;9.57;61.30
28344;BME280;15597;50.914;6.638;2022-12-07T14:41:00;100718.44;;;9.56;61.56
28344;BME280;15597;50.914;6.638;2022-12-07T14:43:44;100714.09;;;9.54;61.66
28344;BME280;15597;50.914;6.638;2022-12-07T14:46:10;100717.56;;;9.56;61.51
28344;BME280;15597;50.914;6.638;2022-12-07T14:48:35;100707.97;;;9.56;61.14
28344;BME280;15597;50.914;6.638;2022-12-07T14:51:01;100701.91;;;9.56;61.84
28344;BME280;15597;50.914;6.638;2022-12-07T14:53:33;100701.91;;;9.56;61.23
28344;BME280;15597;50.914;6.638;2022-12-07T14:56:01;100701.91;;;9.56;61.50
28344;BME280;15597;50.914;6.638;2022-12-07T14:58:26;100696.69;;;9.54;61.38
28344;BME280;15597;50.914;6.638;2022-12-07T15:00:52;100703.66;;;9.54;61.41
28344;BME280;15597;50.914;6.638;2022-12-07T15:03:17;100702.81;;;9.53;61.83